Time;durP1;ratioP1;P1;durP2;ratioP2;P2;SDS_P1;SDS_P2;PMS_P1;PMS_P2;Temp;Humidity;BMP_temperature;BMP_pressure;BME280_temperature;BME280_humidity;BME280_pressure;Samples;Min_cycle;Max_cycle;Signal;HPM_P1;HPM_P2
2022/05/15 00:00:59;;;;;;;77.10;52.33;;;21.00;57.00;;;;;;4926411;28;90223;-43
2022/05/15 00:03:25;;;;;;;78.25;52.58;;;21.00;57.00;;;;;;4922305;28;90284;-43
2022/05/15 00:05:56;;;;;;;77.45;52.60;;;21.10;57.00;;;;;;4926324;28;89663;-41
2022/05/15 00:08:22;;;;;;;77.47;52.65;;;21.10;57.10;;;;;;4931077;28;91356;-40
2022/05/15 00:10:48;;;;;;;77.78;52.30;;;21.00;56.90;;;;;;4933605;28;91179;-42
2022/05/15 00:13:15;;;;;;;77.13;52.10;;;21.00;57.00;;;;;;4919140;28;92786;-42
2022/05/15 00:15:40;;;;;;;77.57;52.35;;;21.00;56.90;;;;;;4925865;28;89914;-41
2022/05/15 00:18:07;;;;;;;77.32;52.42;;;21.00;57.00;;;;;;4925994;28;90082;-39
2022/05/15 00:20:33;;;;;;;76.90;52.55;;;21.00;57.00;;;;;;4919348;28;91539;-40
2022/05/15 00:22:59;;;;;;;79.88;52.42;;;21.00;57.00;;;;;;4914440;28;94978;-42
2022/05/15 00:25:25;;;;;;;78.15;52.60;;;21.00;57.10;;;;;;4925436;28;91997;-44
2022/05/15 00:27:50;;;;;;;77.18;52.53;;;20.90;57.00;;;;;;4921915;28;94724;-40
2022/05/15 00:30:18;;;;;;;76.80;52.42;;;21.00;57.10;;;;;;4909983;28;91672;-43
2022/05/15 00:32:43;;;;;;;76.90;52.28;;;20.90;57.10;;;;;;4919614;28;90141;-42
2022/05/15 00:35:10;;;;;;;77.88;52.40;;;21.00;57.10;;;;;;4916778;28;96381;-41
2022/05/15 00:37:36;;;;;;;78.28;52.50;;;20.90;57.10;;;;;;4923996;28;91441;-41
2022/05/15 00:40:03;;;;;;;77.90;52.42;;;20.90;57.10;;;;;;4922099;28;90435;-41
2022/05/15 00:42:28;;;;;;;77.78;52.33;;;20.90;57.20;;;;;;4924839;28;95786;-42
2022/05/15 00:44:54;;;;;;;77.50;52.55;;;20.90;57.20;;;;;;4924528;28;94077;-41
2022/05/15 00:47:20;;;;;;;77.28;52.35;;;20.90;57.20;;;;;;4925430;28;89652;-42
2022/05/15 00:49:46;;;;;;;76.15;52.25;;;20.90;57.20;;;;;;4923255;28;90081;-43
2022/05/15 00:52:17;;;;;;;78.30;52.50;;;20.90;57.20;;;;;;4917171;28;92763;-41
2022/05/15 00:54:57;;;;;;;77.80;52.53;;;20.90;57.20;;;;;;4909247;28;89832;-41
2022/05/15 00:57:37;;;;;;;76.57;52.25;;;20.80;57.10;;;;;;4916333;28;95877;-41
2022/05/15 01:00:12;;;;;;;76.88;52.42;;;20.80;57.20;;;;;;4927065;28;90018;-45
2022/05/15 01:02:48;;;;;;;76.38;52.28;;;20.80;57.20;;;;;;4914412;28;93419;-43
2022/05/15 01:05:16;;;;;;;77.10;52.50;;;20.80;57.30;;;;;;4917804;28;95066;-40
2022/05/15 01:07:42;;;;;;;78.38;52.65;;;20.80;57.20;;;;;;4915861;28;92107;-40
2022/05/15 01:10:09;;;;;;;77.25;52.60;;;20.80;57.40;;;;;;4924539;28;90455;-42
2022/05/15 01:12:37;;;;;;;77.07;52.25;;;20.70;57.40;;;;;;4929296;28;89703;-41
2022/05/15 01:15:04;;;;;;;76.18;52.33;;;20.80;57.50;;;;;;4923259;28;89912;-43
2022/05/15 01:17:30;;;;;;;77.60;52.58;;;20.70;57.40;;;;;;4917617;28;90747;-41
2022/05/15 01:20:08;;;;;;;77.75;52.33;;;20.70;57.40;;;;;;4928146;28;89128;-41
2022/05/15 01:22:34;;;;;;;78.25;52.60;;;20.70;57.30;;;;;;4914119;28;90975;-42
2022/05/15 01:25:00;;;;;;;77.18;52.30;;;20.70;57.40;;;;;;4915721;28;90930;-43
2022/05/15 01:27:26;;;;;;;77.35;52.30;;;20.70;57.30;;;;;;4915119;28;91334;-46
2022/05/15 01:29:51;;;;;;;77.68;52.42;;;20.70;57.20;;;;;;4917645;28;90115;-42
2022/05/15 01:32:17;;;;;;;77.22;52.22;;;20.70;57.40;;;;;;4927224;28;90097;-42
2022/05/15 01:34:43;;;;;;;76.40;52.33;;;20.70;57.50;;;;;;4921385;28;90433;-43
2022/05/15 01:37:09;;;;;;;76.97;52.15;;;20.70;57.40;;;;;;4925862;28;90099;-42
2022/05/15 01:39:36;;;;;;;77.57;52.17;;;20.70;57.40;;;;;;4923595;28;90665;-40
2022/05/15 01:42:03;;;;;;;76.88;52.22;;;20.70;57.50;;;;;;4917393;28;89957;-42
2022/05/15 01:44:30;;;;;;;75.78;52.00;;;20.60;57.50;;;;;;4927588;28;89550;-42
2022/05/15 01:46:57;;;;;;;77.03;52.35;;;20.60;57.40;;;;;;4924557;28;95819;-41
2022/05/15 01:49:22;;;;;;;76.70;52.17;;;20.60;57.50;;;;;;4928544;28;90193;-40
2022/05/15 01:51:48;;;;;;;77.03;52.63;;;20.60;57.50;;;;;;4926851;28;91458;-42
2022/05/15 01:54:14;;;;;;;77.93;52.63;;;20.50;57.50;;;;;;4906722;28;91850;-43
2022/05/15 01:56:41;;;;;;;77.82;52.25;;;20.50;57.70;;;;;;4919039;28;90421;-41
2022/05/15 01:59:07;;;;;;;77.90;52.72;;;20.50;57.50;;;;;;4920289;28;95888;-43
2022/05/15 02:01:34;;;;;;;76.57;52.22;;;20.50;57.40;;;;;;4920144;28;90270;-44
2022/05/15 02:04:00;;;;;;;76.93;52.42;;;20.50;57.50;;;;;;4926761;28;90000;-43
2022/05/15 02:06:28;;;;;;;78.35;52.35;;;20.50;57.60;;;;;;4930425;28;90291;-42
2022/05/15 02:08:54;;;;;;;78.20;52.20;;;20.50;57.50;;;;;;4919900;28;90020;-44
2022/05/15 02:11:20;;;;;;;77.65;52.13;;;20.40;57.60;;;;;;4931557;28;90030;-42
2022/05/15 02:13:46;;;;;;;76.47;52.40;;;20.40;57.40;;;;;;4925774;28;89838;-41
2022/05/15 02:16:12;;;;;;;76.72;52.22;;;20.50;57.70;;;;;;4919356;28;91389;-41
2022/05/15 02:18:38;;;;;;;75.55;51.83;;;20.40;57.70;;;;;;4921309;28;91758;-42
2022/05/15 02:21:04;;;;;;;77.05;52.25;;;20.40;57.60;;;;;;4921210;28;89984;-44
2022/05/15 02:23:30;;;;;;;76.15;52.10;;;20.40;57.80;;;;;;4918361;28;91489;-41
2022/05/15 02:25:56;;;;;;;75.90;52.10;;;20.40;57.80;;;;;;4918605;28;95931;-43
2022/05/15 02:28:21;;;;;;;75.82;52.05;;;20.40;57.80;;;;;;4921412;28;89832;-43
2022/05/15 02:30:48;;;;;;;76.57;52.10;;;20.40;57.90;;;;;;4921853;28;89730;-40
2022/05/15 02:33:14;;;;;;;75.93;52.03;;;20.40;57.80;;;;;;4908283;28;89563;-40
2022/05/15 02:35:40;;;;;;;76.40;52.08;;;20.30;57.80;;;;;;4924732;28;90692;-40
2022/05/15 02:38:05;;;;;;;76.40;52.50;;;20.30;57.90;;;;;;4922114;28;91602;-42
2022/05/15 02:40:31;;;;;;;76.78;52.55;;;20.30;57.70;;;;;;4922704;28;91202;-42
2022/05/15 02:42:57;;;;;;;76.68;52.30;;;20.30;58.40;;;;;;4927894;28;90804;-42
2022/05/15 02:45:23;;;;;;;76.07;52.17;;;20.30;58.00;;;;;;4926829;28;90716;-42
2022/05/15 02:47:50;;;;;;;76.75;52.15;;;20.20;58.00;;;;;;4919040;28;90718;-41
2022/05/15 02:53:01;;;;;;;76.72;52.08;;;20.20;57.90;;;;;;4923215;28;90040;-40
2022/05/15 02:55:27;;;;;;;75.95;51.92;;;20.20;58.00;;;;;;4918434;28;89538;-44
2022/05/15 02:57:54;;;;;;;76.30;51.85;;;20.20;58.00;;;;;;4919253;28;91433;-40
2022/05/15 03:00:21;;;;;;;76.50;52.22;;;20.20;58.00;;;;;;4920796;28;90787;-46
2022/05/15 03:02:47;;;;;;;75.18;51.97;;;20.20;57.90;;;;;;4923815;28;90119;-42
2022/05/15 03:05:15;;;;;;;76.78;51.85;;;20.20;57.90;;;;;;4926654;28;91637;-41
2022/05/15 03:07:42;;;;;;;76.18;51.92;;;20.20;57.90;;;;;;4923180;28;95708;-41
2022/05/15 03:10:10;;;;;;;76.80;52.30;;;20.20;57.90;;;;;;4920716;28;90183;-44
2022/05/15 03:12:36;;;;;;;75.65;52.03;;;20.10;57.90;;;;;;4923661;28;91649;-42
2022/05/15 03:15:02;;;;;;;76.32;52.15;;;20.10;58.10;;;;;;4916302;28;94395;-42
2022/05/15 03:17:27;;;;;;;75.75;51.78;;;20.10;58.60;;;;;;4925035;28;95659;-43
2022/05/15 03:19:53;;;;;;;76.40;51.88;;;20.10;57.80;;;;;;4925974;28;92868;-44
2022/05/15 03:22:19;;;;;;;75.63;51.90;;;20.10;58.00;;;;;;4927295;28;90506;-40
2022/05/15 03:24:44;;;;;;;75.50;51.97;;;20.10;58.00;;;;;;4912539;28;90584;-43
2022/05/15 03:27:10;;;;;;;75.95;52.10;;;20.00;57.90;;;;;;4913846;28;90290;-42
2022/05/15 03:29:35;;;;;;;76.10;51.85;;;20.00;58.10;;;;;;4914618;28;91502;-42
2022/05/15 03:32:01;;;;;;;76.80;52.17;;;20.00;58.10;;;;;;4929165;28;96379;-40
2022/05/15 03:34:27;;;;;;;75.63;51.88;;;20.00;58.30;;;;;;4921620;28;90653;-42
2022/05/15 03:36:53;;;;;;;76.68;52.15;;;20.00;58.10;;;;;;4927032;28;92782;-45
2022/05/15 03:39:21;;;;;;;76.35;52.00;;;20.00;58.30;;;;;;4912627;28;91784;-40
2022/05/15 03:41:48;;;;;;;75.82;51.72;;;20.00;58.20;;;;;;4919508;28;90054;-41
2022/05/15 03:44:13;;;;;;;76.00;52.20;;;20.00;58.00;;;;;;4919020;28;90319;-41
2022/05/15 03:46:40;;;;;;;76.38;52.20;;;20.00;58.20;;;;;;4924267;28;90376;-41
2022/05/15 03:49:06;;;;;;;75.88;51.75;;;20.00;58.90;;;;;;4930231;28;89576;-41
2022/05/15 03:51:32;;;;;;;77.35;52.25;;;20.00;57.90;;;;;;4921009;28;90626;-43
2022/05/15 03:53:59;;;;;;;74.70;51.85;;;19.90;58.30;;;;;;4910164;28;93590;-40
2022/05/15 03:59:11;;;;;;;76.38;52.08;;;19.90;58.20;;;;;;4924515;28;90513;-44
2022/05/15 04:01:37;;;;;;;75.10;51.88;;;20.00;58.30;;;;;;4918648;28;90327;-42
2022/05/15 04:04:03;;;;;;;75.40;52.08;;;20.00;58.20;;;;;;4923859;28;90357;-43
2022/05/15 04:06:29;;;;;;;75.70;51.83;;;19.90;58.10;;;;;;4919778;28;90257;-43
2022/05/15 04:08:55;;;;;;;74.78;51.70;;;19.90;58.30;;;;;;4924639;28;91357;-40
2022/05/15 04:11:21;;;;;;;74.43;51.80;;;19.90;58.20;;;;;;4922501;28;89398;-41
2022/05/15 04:13:47;;;;;;;75.25;51.75;;;19.90;58.20;;;;;;4921517;28;90150;-42
2022/05/15 04:16:13;;;;;;;76.32;52.05;;;19.90;58.40;;;;;;4923443;28;92198;-42
2022/05/15 04:18:39;;;;;;;76.00;51.97;;;19.90;58.20;;;;;;4924363;28;91079;-42
2022/05/15 04:21:05;;;;;;;75.18;51.90;;;19.90;58.20;;;;;;4922484;28;92526;-42
2022/05/15 04:23:31;;;;;;;75.75;51.88;;;19.90;58.10;;;;;;4918833;28;90424;-41
2022/05/15 04:25:57;;;;;;;76.00;52.03;;;19.90;58.10;;;;;;4912567;28;90630;-44
2022/05/15 04:28:23;;;;;;;75.45;52.05;;;19.90;58.10;;;;;;4914253;28;90159;-44
2022/05/15 04:30:49;;;;;;;75.15;52.08;;;19.90;58.00;;;;;;4912003;28;90107;-44
2022/05/15 04:33:14;;;;;;;75.55;51.75;;;19.90;57.90;;;;;;4926141;28;89875;-42
2022/05/15 04:35:41;;;;;;;74.97;51.58;;;20.00;58.10;;;;;;4920129;28;89266;-41
2022/05/15 04:38:10;;;;;;;75.93;52.05;;;20.00;57.90;;;;;;4926071;28;90842;-44
2022/05/15 04:40:35;;;;;;;76.63;52.03;;;20.00;57.80;;;;;;4924544;28;90655;-42
2022/05/15 04:43:01;;;;;;;75.95;52.00;;;20.00;57.80;;;;;;4924904;28;93373;-43
2022/05/15 04:45:27;;;;;;;77.03;52.00;;;20.00;57.90;;;;;;4922948;28;90180;-40
2022/05/15 04:47:52;;;;;;;74.80;51.92;;;20.00;57.80;;;;;;4926348;28;89825;-40
2022/05/15 04:50:19;;;;;;;75.32;52.15;;;20.00;57.80;;;;;;4920936;28;89511;-42
2022/05/15 04:52:45;;;;;;;75.53;52.10;;;20.10;57.70;;;;;;4924730;28;90537;-41
2022/05/15 04:55:13;;;;;;;75.68;51.97;;;20.00;57.50;;;;;;4906643;28;94581;-40
2022/05/15 04:57:39;;;;;;;76.57;52.15;;;20.10;57.90;;;;;;4912393;28;92105;-40
2022/05/15 05:00:11;;;;;;;75.68;51.90;;;20.10;57.70;;;;;;4924196;28;94773;-45
2022/05/15 05:02:37;;;;;;;75.90;52.05;;;20.10;57.50;;;;;;4927537;28;90302;-41
2022/05/15 05:05:03;;;;;;;74.95;51.92;;;20.10;57.50;;;;;;4920019;28;90392;-43
2022/05/15 05:07:29;;;;;;;75.40;51.80;;;20.20;57.50;;;;;;4931350;28;91038;-43
2022/05/15 05:09:55;;;;;;;75.55;52.05;;;20.10;57.30;;;;;;4914227;28;90330;-45
2022/05/15 05:12:21;;;;;;;75.97;52.20;;;20.20;57.40;;;;;;4920966;28;89924;-44
2022/05/15 05:14:47;;;;;;;75.53;51.92;;;20.20;57.20;;;;;;4921995;28;90685;-40
2022/05/15 05:17:14;;;;;;;75.35;51.97;;;20.20;57.30;;;;;;4931920;28;90378;-43
2022/05/15 05:19:39;;;;;;;75.65;51.97;;;20.20;57.10;;;;;;4924484;28;90297;-40
2022/05/15 05:22:05;;;;;;;75.55;51.88;;;20.30;57.20;;;;;;4924721;28;91148;-42
2022/05/15 05:24:31;;;;;;;76.05;52.10;;;20.30;57.10;;;;;;4910319;28;90225;-42
2022/05/15 05:26:57;;;;;;;76.28;52.05;;;20.30;57.20;;;;;;4915831;28;89977;-41
2022/05/15 05:29:22;;;;;;;77.38;52.42;;;20.30;56.90;;;;;;4925474;28;90681;-40
2022/05/15 05:31:49;;;;;;;75.53;52.00;;;20.30;57.10;;;;;;4913213;28;90549;-41
2022/05/15 05:34:15;;;;;;;78.20;52.33;;;20.30;57.00;;;;;;4916310;28;92687;-45
2022/05/15 05:36:41;;;;;;;76.28;52.22;;;20.30;57.00;;;;;;4919506;28;90477;-44
2022/05/15 05:39:07;;;;;;;75.75;52.17;;;20.40;56.90;;;;;;4927868;28;89580;-43
2022/05/15 05:41:32;;;;;;;76.13;52.05;;;20.40;56.70;;;;;;4929056;28;89555;-42
2022/05/15 05:44:00;;;;;;;76.90;52.25;;;20.40;56.70;;;;;;4926278;28;91140;-43
2022/05/15 05:46:27;;;;;;;75.65;51.92;;;20.40;56.60;;;;;;4928558;28;92002;-43
2022/05/15 05:48:52;;;;;;;75.18;52.00;;;20.50;56.60;;;;;;4927358;28;88985;-45
2022/05/15 05:51:18;;;;;;;76.03;52.22;;;20.50;56.60;;;;;;4913155;28;90337;-42
2022/05/15 05:53:43;;;;;;;75.25;52.03;;;20.50;56.30;;;;;;4924572;28;91905;-43
2022/05/15 05:56:09;;;;;;;75.90;52.22;;;20.50;56.40;;;;;;4913485;28;95406;-43
2022/05/15 05:58:36;;;;;;;76.18;52.05;;;20.60;56.90;;;;;;4920320;28;90059;-45
2022/05/15 06:01:02;;;;;;;76.07;52.13;;;20.60;56.30;;;;;;4930934;28;90364;-44
2022/05/15 06:06:11;;;;;;;75.68;52.15;;;20.70;56.10;;;;;;4931734;28;90508;-44
2022/05/15 06:08:37;;;;;;;75.72;52.10;;;20.70;55.90;;;;;;4919387;28;90561;-42
2022/05/15 06:11:03;;;;;;;76.28;52.33;;;20.80;55.80;;;;;;4913576;28;90403;-43
2022/05/15 06:13:28;;;;;;;77.63;52.70;;;20.80;55.70;;;;;;4916518;28;89675;-42
2022/05/15 06:15:55;;;;;;;77.13;52.53;;;20.90;55.60;;;;;;4922548;28;89748;-41
2022/05/15 06:18:21;;;;;;;77.50;52.53;;;20.90;55.50;;;;;;4927798;28;90302;-41
2022/05/15 06:20:46;;;;;;;76.90;52.33;;;20.90;55.30;;;;;;4925461;28;91858;-43
2022/05/15 06:23:12;;;;;;;76.65;52.42;;;21.00;55.30;;;;;;4928199;28;90477;-43
2022/05/15 06:25:38;;;;;;;76.55;52.35;;;21.00;55.00;;;;;;4908519;28;90340;-42
2022/05/15 06:28:04;;;;;;;77.53;52.33;;;21.10;54.80;;;;;;4917339;28;90666;-43
2022/05/15 06:30:30;;;;;;;76.57;52.20;;;21.20;54.90;;;;;;4919346;28;92720;-42
2022/05/15 06:32:56;;;;;;;77.18;52.35;;;21.20;54.70;;;;;;4924826;28;90432;-43
2022/05/15 06:35:22;;;;;;;77.15;52.65;;;21.20;54.60;;;;;;4920793;28;92788;-41
2022/05/15 06:37:48;;;;;;;76.40;52.38;;;21.30;54.60;;;;;;4936269;28;89399;-42
2022/05/15 06:40:15;;;;;;;77.45;52.20;;;21.30;54.30;;;;;;4922869;28;92113;-42
2022/05/15 06:42:41;;;;;;;77.32;52.45;;;21.30;54.40;;;;;;4922524;28;92693;-42
2022/05/15 06:45:07;;;;;;;76.97;52.20;;;21.40;54.40;;;;;;4921398;28;90761;-43
2022/05/15 06:47:33;;;;;;;76.50;52.38;;;21.40;54.20;;;;;;4927877;28;90438;-43
2022/05/15 06:50:00;;;;;;;77.80;52.38;;;21.40;54.40;;;;;;4928223;28;91943;-41
2022/05/15 06:52:26;;;;;;;77.43;52.50;;;21.40;54.30;;;;;;4919253;28;94591;-41
2022/05/15 06:54:52;;;;;;;77.22;52.33;;;21.40;54.30;;;;;;4913067;28;89737;-41
2022/05/15 06:57:39;;;;;;;76.82;52.53;;;21.50;54.30;;;;;;4912832;28;89601;-42
2022/05/15 07:00:12;;;;;;;77.47;52.45;;;21.50;54.20;;;;;;4923803;28;89999;-44
2022/05/15 07:02:40;;;;;;;77.32;52.70;;;21.50;54.30;;;;;;4917367;28;90907;-42
2022/05/15 07:05:07;;;;;;;76.57;52.38;;;21.50;54.30;;;;;;4925749;28;90067;-42
2022/05/15 07:07:33;;;;;;;77.03;52.22;;;21.50;54.10;;;;;;4925511;28;90796;-41
2022/05/15 07:09:58;;;;;;;76.97;52.15;;;21.50;54.20;;;;;;4932259;28;91547;-43
2022/05/15 07:12:25;;;;;;;76.97;52.42;;;21.50;54.10;;;;;;4919268;28;90455;-43
2022/05/15 07:14:50;;;;;;;76.95;52.35;;;21.50;54.10;;;;;;4926981;28;90372;-42
2022/05/15 07:17:16;;;;;;;76.75;52.45;;;21.50;54.10;;;;;;4921918;28;90575;-42
2022/05/15 07:19:42;;;;;;;76.85;52.53;;;21.60;54.10;;;;;;4925293;28;91058;-44
2022/05/15 07:22:09;;;;;;;77.25;52.55;;;21.60;54.10;;;;;;4926216;28;89903;-41
2022/05/15 07:24:38;;;;;;;76.82;52.33;;;21.60;54.00;;;;;;4918023;28;91840;-42
2022/05/15 07:27:07;;;;;;;77.15;52.30;;;21.60;54.00;;;;;;4920517;28;89406;-41
2022/05/15 07:29:36;;;;;;;77.15;52.47;;;21.70;54.00;;;;;;4923186;28;91306;-42
2022/05/15 07:32:02;;;;;;;77.82;52.65;;;21.70;53.90;;;;;;4917258;28;89967;-42
2022/05/15 07:34:28;;;;;;;76.80;52.28;;;21.70;53.80;;;;;;4924433;28;91760;-44
2022/05/15 07:36:54;;;;;;;77.20;52.40;;;21.80;53.80;;;;;;4921261;28;89730;-40
2022/05/15 07:39:20;;;;;;;80.10;53.13;;;21.80;53.50;;;;;;4912236;28;90359;-45
2022/05/15 07:41:47;;;;;;;78.05;52.83;;;21.90;53.40;;;;;;4918073;28;90848;-42
2022/05/15 07:44:13;;;;;;;77.05;52.55;;;21.90;53.90;;;;;;4930483;28;91248;-45
2022/05/15 07:46:40;;;;;;;79.93;52.85;;;21.90;53.30;;;;;;4926405;28;90348;-46
2022/05/15 07:49:06;;;;;;;78.40;52.88;;;21.90;53.10;;;;;;4921277;28;90107;-42
2022/05/15 07:51:32;;;;;;;77.90;52.85;;;22.00;53.10;;;;;;4928593;28;91263;-41
2022/05/15 07:53:58;;;;;;;79.47;53.03;;;22.10;52.80;;;;;;4912581;28;90606;-41
2022/05/15 07:56:24;;;;;;;78.05;52.95;;;22.10;52.70;;;;;;4914916;28;93523;-43
2022/05/15 07:58:50;;;;;;;77.90;52.65;;;22.20;52.70;;;;;;4918879;28;92570;-41
2022/05/15 08:01:15;;;;;;;77.53;52.60;;;22.20;52.70;;;;;;4926039;28;90550;-44
2022/05/15 08:03:44;;;;;;;77.65;52.65;;;22.20;52.60;;;;;;4918620;28;92271;-43
2022/05/15 08:09:02;;;;;;;77.40;52.45;;;22.20;52.60;;;;;;4924798;28;89998;-43
2022/05/15 08:11:28;;;;;;;78.35;52.75;;;22.20;52.50;;;;;;4911223;28;90716;-43
2022/05/15 08:13:56;;;;;;;77.72;52.65;;;22.30;52.60;;;;;;4909059;28;90218;-43
2022/05/15 08:16:22;;;;;;;77.78;52.50;;;22.30;52.60;;;;;;4924710;28;88928;-42
2022/05/15 08:24:16;;;;;;;77.88;52.72;;;22.30;52.40;;;;;;4898576;28;92405;-42
2022/05/15 08:26:44;;;;;;;78.20;52.85;;;22.40;52.40;;;;;;4908100;28;91070;-43
2022/05/15 08:29:10;;;;;;;78.22;53.17;;;22.40;52.30;;;;;;4914423;28;90790;-43
2022/05/15 08:31:36;;;;;;;77.63;52.47;;;22.50;52.20;;;;;;4910393;28;90212;-42
2022/05/15 08:34:02;;;;;;;78.18;53.03;;;22.50;52.20;;;;;;4914996;28;89880;-43
2022/05/15 08:36:28;;;;;;;78.72;52.78;;;22.50;52.10;;;;;;4925412;28;92023;-43
2022/05/15 08:38:54;;;;;;;77.75;52.70;;;22.50;52.10;;;;;;4909038;28;90577;-45
2022/05/15 08:41:31;;;;;;;78.57;52.88;;;22.50;52.10;;;;;;4929629;28;90459;-42
2022/05/15 08:44:08;;;;;;;78.47;52.85;;;22.60;52.10;;;;;;4911422;28;90231;-43
2022/05/15 08:46:49;;;;;;;79.13;53.13;;;22.60;52.10;;;;;;4918672;28;90632;-42
2022/05/15 08:49:24;;;;;;;77.88;52.63;;;22.60;52.00;;;;;;4915406;28;97857;-44
2022/05/15 08:51:52;;;;;;;78.18;52.83;;;22.60;52.00;;;;;;4920443;28;91830;-43
2022/05/15 08:54:18;;;;;;;79.05;53.08;;;22.60;51.90;;;;;;4916330;28;91086;-41
2022/05/15 08:56:49;;;;;;;78.05;52.90;;;22.60;51.80;;;;;;4916563;28;90522;-42
2022/05/15 08:59:28;;;;;;;79.00;53.15;;;22.70;51.80;;;;;;4908218;28;91150;-44
2022/05/15 09:01:56;;;;;;;78.30;52.80;;;22.70;51.70;;;;;;4918819;28;91730;-42
2022/05/15 09:04:23;;;;;;;78.68;52.90;;;22.70;51.70;;;;;;4904439;28;91425;-42
2022/05/15 09:06:56;;;;;;;78.45;53.05;;;22.70;51.70;;;;;;4919890;28;89753;-45
2022/05/15 09:09:47;;;;;;;79.03;53.10;;;22.70;51.70;;;;;;4919406;28;89922;-45
2022/05/15 09:12:21;;;;;;;;;;;22.70;51.70;;;;;;4923128;28;90857;-43
2022/05/15 09:14:53;;;;;;;79.30;52.90;;;22.70;51.80;;;;;;4927387;28;91894;-43
2022/05/15 09:17:43;;;;;;;78.80;53.17;;;22.70;51.80;;;;;;4933545;28;90032;-43
2022/05/15 09:20:34;;;;;;;77.90;52.70;;;22.70;51.80;;;;;;4927044;28;90091;-44
2022/05/15 09:23:18;;;;;;;79.70;53.05;;;22.70;51.80;;;;;;4931903;28;89944;-45
2022/05/15 09:26:00;;;;;;;78.28;53.08;;;22.70;51.90;;;;;;4921793;28;91873;-43
2022/05/15 09:28:28;;;;;;;78.80;52.78;;;22.70;52.00;;;;;;4926927;28;91772;-45
2022/05/15 09:30:57;;;;;;;79.43;52.97;;;22.70;52.00;;;;;;4929149;28;90882;-46
2022/05/15 09:33:29;;;;;;;80.78;53.10;;;22.70;52.00;;;;;;4934261;28;90247;-44
2022/05/15 09:36:22;;;;;;;78.88;53.00;;;22.70;52.10;;;;;;4932986;28;90111;-44
2022/05/15 09:38:49;;;;;;;80.07;52.97;;;22.60;52.10;;;;;;4932537;28;89632;-44
2022/05/15 09:44:31;;;;;;;78.90;52.97;;;22.70;52.20;;;;;;4931866;28;94956;-43
2022/05/15 09:47:03;;;;;;;80.45;53.17;;;22.60;52.10;;;;;;4929174;28;90022;-43
2022/05/15 09:49:34;;;;;;;78.40;53.17;;;22.70;52.10;;;;;;4925170;28;89547;-45
2022/05/15 09:52:10;;;;;;;78.53;53.08;;;22.60;52.10;;;;;;4931510;28;91059;-42
2022/05/15 09:54:37;;;;;;;78.60;53.03;;;22.60;52.10;;;;;;4924709;28;89851;-44
2022/05/15 09:57:25;;;;;;;79.07;53.17;;;22.60;52.00;;;;;;4922118;28;91807;-44
2022/05/15 09:59:57;;;;;;;80.18;53.05;;;22.70;52.00;;;;;;4929488;28;89303;-46
2022/05/15 10:02:27;;;;;;;78.63;53.22;;;22.70;52.00;;;;;;4933189;28;90435;-45
2022/05/15 10:04:54;;;;;;;78.13;52.60;;;22.70;52.00;;;;;;4928947;28;90496;-44
2022/05/15 10:07:35;;;;;;;79.43;53.05;;;22.70;52.00;;;;;;4934976;28;91464;-43
2022/05/15 10:10:24;;;;;;;79.57;53.33;;;22.70;51.90;;;;;;4929810;28;89972;-46
2022/05/15 10:13:03;;;;;;;79.45;53.17;;;22.70;51.90;;;;;;4928232;28;91541;-45
2022/05/15 10:15:40;;;;;;;78.60;53.05;;;22.70;52.00;;;;;;4929257;28;89968;-44
2022/05/15 10:18:10;;;;;;;79.75;53.25;;;22.70;51.90;;;;;;4925683;28;89952;-43
2022/05/15 10:20:40;;;;;;;79.28;53.15;;;22.70;52.00;;;;;;4925985;28;90042;-43
2022/05/15 10:23:25;;;;;;;79.20;53.17;;;22.80;51.90;;;;;;4930792;28;91318;-45
2022/05/15 10:26:06;;;;;;;78.93;52.92;;;22.80;51.90;;;;;;4914711;28;93709;-44
2022/05/15 10:28:52;;;;;;;78.95;53.33;;;22.80;51.80;;;;;;4928850;28;91019;-45
2022/05/15 10:31:58;;;;;;;79.70;53.53;;;22.80;51.70;;;;;;4925939;28;89663;-44
2022/05/15 10:34:28;;;;;;;79.18;53.30;;;22.90;51.50;;;;;;4929336;28;90761;-48
2022/05/15 10:37:20;;;;;;;80.38;53.20;;;22.90;51.40;;;;;;4931202;28;90006;-46
2022/05/15 10:40:16;;;;;;;79.75;53.50;;;22.90;51.40;;;;;;4928548;28;89980;-45
2022/05/15 10:42:53;;;;;;;80.00;53.38;;;22.90;51.40;;;;;;4935224;28;89560;-43
2022/05/15 10:45:57;;;;;;;81.15;53.45;;;22.90;51.40;;;;;;4926692;28;90166;-43
2022/05/15 10:48:43;;;;;;;79.20;53.47;;;22.90;51.60;;;;;;4925959;28;93820;-42
2022/05/15 10:51:22;;;;;;;80.13;53.35;;;22.90;51.60;;;;;;4924340;28;90027;-43
2022/05/15 10:57:26;;;;;;;79.45;53.42;;;22.90;51.60;;;;;;4914850;28;93410;-42
2022/05/15 11:00:19;;;;;;;79.47;53.10;;;22.90;51.60;;;;;;4923172;28;93074;-43
2022/05/15 11:03:11;;;;;;;78.90;53.40;;;22.90;51.60;;;;;;4921063;28;92220;-44
2022/05/15 11:05:42;;;;;;;79.43;53.33;;;22.90;51.50;;;;;;4934825;28;89754;-44
2022/05/15 11:08:08;;;;;;;79.47;53.65;;;22.90;51.50;;;;;;4928920;28;91388;-43
2022/05/15 11:10:42;;;;;;;80.07;53.33;;;23.00;51.60;;;;;;4925037;28;90535;-43
2022/05/15 11:13:20;;;;;;;79.25;53.35;;;23.00;52.20;;;;;;4925908;28;90136;-47
2022/05/15 11:15:54;;;;;;;79.10;53.35;;;23.00;51.50;;;;;;4922200;28;91897;-43
2022/05/15 11:18:46;;;;;;;79.82;53.65;;;23.00;51.50;;;;;;4917401;28;93093;-44
2022/05/15 11:21:32;;;;;;;78.90;53.20;;;23.00;51.50;;;;;;4924665;28;90669;-43
2022/05/15 11:24:09;;;;;;;80.65;53.60;;;23.00;51.50;;;;;;4917915;28;90050;-44
2022/05/15 11:26:45;;;;;;;81.32;53.72;;;23.00;51.50;;;;;;4914959;28;95176;-44
2022/05/15 11:29:15;;;;;;;79.55;53.50;;;23.10;51.40;;;;;;4919660;28;91716;-44
2022/05/15 11:31:48;;;;;;;80.47;53.83;;;23.10;51.40;;;;;;4924868;28;90436;-42
2022/05/15 11:34:14;;;;;;;80.28;53.58;;;23.10;51.30;;;;;;4911944;28;89993;-43
2022/05/15 11:36:43;;;;;;;79.50;53.65;;;23.10;51.20;;;;;;4920477;28;91536;-44
2022/05/15 11:39:15;;;;;;;79.65;53.63;;;23.10;51.20;;;;;;4916852;28;91755;-43
2022/05/15 11:42:14;;;;;;;80.03;53.55;;;23.20;51.20;;;;;;4909707;28;94535;-42
2022/05/15 11:44:46;;;;;;;80.68;53.63;;;23.20;51.30;;;;;;4918219;28;90835;-45
2022/05/15 11:47:14;;;;;;;79.53;53.42;;;23.10;51.20;;;;;;4912807;28;89525;-46
2022/05/15 11:49:56;;;;;;;81.65;53.85;;;23.20;51.30;;;;;;4912093;28;90275;-46
2022/05/15 11:52:37;;;;;;;81.25;53.95;;;23.20;51.40;;;;;;4911979;28;92080;-45
2022/05/15 11:55:42;;;;;;;82.65;53.97;;;23.20;51.30;;;;;;4928412;28;96630;-45
2022/05/15 11:58:26;;;;;;;80.55;53.58;;;23.20;51.30;;;;;;4909496;28;94979;-42
2022/05/15 12:01:20;;;;;;;81.93;54.03;;;23.20;51.20;;;;;;4928062;28;90102;-43
2022/05/15 12:04:06;;;;;;;82.05;54.13;;;23.20;51.10;;;;;;4928072;28;89744;-42
2022/05/15 12:06:55;;;;;;;80.97;53.92;;;23.30;51.00;;;;;;4922712;28;90105;-44
2022/05/15 12:09:20;;;;;;;81.75;54.28;;;23.40;50.90;;;;;;4932574;28;90021;-46
2022/05/15 12:11:48;;;;;;;83.35;54.45;;;23.50;50.70;;;;;;4917081;28;90724;-43
2022/05/15 12:14:25;;;;;;;81.90;54.45;;;23.50;50.60;;;;;;4929755;28;90014;-43
2022/05/15 12:17:09;;;;;;;82.03;54.22;;;23.60;50.50;;;;;;4922720;28;90200;-43
2022/05/15 12:19:40;;;;;;;81.70;54.25;;;23.60;50.30;;;;;;4931440;28;91850;-44
2022/05/15 12:22:08;;;;;;;85.00;54.60;;;23.60;50.30;;;;;;4918083;28;91149;-44
2022/05/15 12:24:37;;;;;;;81.88;54.38;;;23.70;50.30;;;;;;4924207;28;90042;-44
2022/05/15 12:27:20;;;;;;;81.00;54.30;;;23.70;50.20;;;;;;4920235;28;91536;-44
2022/05/15 12:30:13;;;;;;;81.82;54.05;;;23.70;50.20;;;;;;4927526;28;90369;-44
2022/05/15 12:33:03;;;;;;;82.20;54.13;;;23.70;50.20;;;;;;4922721;28;91797;-45
2022/05/15 12:35:35;;;;;;;82.10;54.42;;;23.70;50.20;;;;;;4937082;28;89933;-42
2022/05/15 12:38:17;;;;;;;82.38;54.38;;;23.70;50.20;;;;;;4933419;28;90247;-44
2022/05/15 12:41:22;;;;;;;83.32;54.17;;;23.70;50.20;;;;;;4927422;28;90612;-44
2022/05/15 12:43:51;;;;;;;80.68;54.25;;;23.70;50.30;;;;;;4933564;28;92164;-46
2022/05/15 12:46:29;;;;;;;81.30;54.15;;;23.70;50.30;;;;;;4927093;28;90376;-42
2022/05/15 12:48:55;;;;;;;81.82;54.30;;;23.70;50.30;;;;;;4931043;28;90697;-45
2022/05/15 12:51:32;;;;;;;81.18;54.08;;;23.70;50.40;;;;;;4930060;28;90533;-44
2022/05/15 12:53:59;;;;;;;81.50;54.00;;;23.70;50.50;;;;;;4928758;28;89963;-46
2022/05/15 12:56:30;;;;;;;80.38;53.95;;;23.70;50.50;;;;;;4924949;28;91887;-46
2022/05/15 12:58:58;;;;;;;80.78;54.10;;;23.70;50.50;;;;;;4920399;28;90493;-47
2022/05/15 13:01:27;;;;;;;80.63;53.92;;;23.70;50.60;;;;;;4922665;28;91284;-45
2022/05/15 13:03:56;;;;;;;80.95;54.13;;;23.70;50.70;;;;;;4915352;28;92628;-44
2022/05/15 13:06:29;;;;;;;81.65;53.75;;;23.70;50.70;;;;;;4907975;28;90559;-45